createdAt,value
2023-12-11T00:01:55.764Z,-1.39
2023-12-11T00:04:58.701Z,-1.33
2023-12-11T00:08:01.131Z,-1.27
2023-12-11T00:11:03.963Z,-1.18
2023-12-11T00:14:07.541Z,-1.12
2023-12-11T00:17:10.457Z,-1.03
2023-12-11T00:20:13.034Z,-1.00
2023-12-11T00:23:15.733Z,-0.96
2023-12-11T00:26:18.562Z,-0.93
2023-12-11T00:29:21.321Z,-0.91
2023-12-11T00:32:23.763Z,-0.92
2023-12-11T00:35:26.475Z,-0.94
2023-12-11T00:38:28.896Z,-0.92
2023-12-11T00:41:31.628Z,-0.90
2023-12-11T00:44:34.056Z,-0.92
2023-12-11T00:47:37.138Z,-0.89
2023-12-11T00:50:39.553Z,-0.87
2023-12-11T00:53:42.286Z,-0.85
2023-12-11T00:56:44.751Z,-0.84
2023-12-11T00:59:47.529Z,-0.86
2023-12-11T01:02:49.955Z,-0.87
2023-12-11T01:05:52.808Z,-0.92
2023-12-11T01:08:55.247Z,-0.92
2023-12-11T01:11:58.036Z,-0.92
2023-12-11T01:15:00.466Z,-0.98
2023-12-11T01:18:03.375Z,-1.01
2023-12-11T01:21:05.887Z,-1.13
2023-12-11T01:24:09.112Z,-1.15
2023-12-11T01:27:11.620Z,-1.18
2023-12-11T01:30:14.458Z,-1.20
2023-12-11T01:33:17.084Z,-1.27
2023-12-11T01:36:19.839Z,-1.49
2023-12-11T01:39:22.289Z,-1.35
2023-12-11T01:42:24.961Z,-1.35
2023-12-11T01:45:27.345Z,-1.36
2023-12-11T01:48:30.443Z,-1.39
2023-12-11T01:51:33.160Z,-1.44
2023-12-11T01:54:37.565Z,-1.54
2023-12-11T01:57:40.017Z,-1.55
2023-12-11T02:00:43.133Z,-1.58
2023-12-11T02:03:46.023Z,-1.63
2023-12-11T02:06:49.230Z,-1.65
2023-12-11T02:09:51.757Z,-1.67
2023-12-11T02:12:54.731Z,-1.71
2023-12-11T02:15:57.670Z,-1.70
2023-12-11T02:19:00.619Z,-1.65
2023-12-11T02:22:07.220Z,-1.64
2023-12-11T02:25:10.302Z,-1.64
2023-12-11T02:28:13.007Z,-1.62
2023-12-11T02:31:16.126Z,-1.61
2023-12-11T02:34:18.621Z,-1.60
2023-12-11T02:37:21.447Z,-1.59
2023-12-11T02:40:23.860Z,-1.56
2023-12-11T02:43:26.711Z,-1.54
2023-12-11T02:46:29.160Z,-1.54
2023-12-11T02:49:31.936Z,-1.49
2023-12-11T02:52:34.402Z,-1.46
2023-12-11T02:55:37.096Z,-1.44
2023-12-11T02:58:39.638Z,-1.46
2023-12-11T03:01:42.496Z,-1.41
2023-12-11T03:04:45.076Z,-1.40
2023-12-11T03:07:48.150Z,-1.37
2023-12-11T03:10:50.802Z,-1.31
2023-12-11T03:13:53.547Z,-1.28
2023-12-11T03:16:55.945Z,-1.19
2023-12-11T03:20:00.490Z,-1.15
2023-12-11T03:23:03.133Z,-1.17
2023-12-11T03:26:05.875Z,-1.15
2023-12-11T03:29:08.325Z,-1.11
2023-12-11T03:32:11.065Z,-1.10
2023-12-11T03:35:13.504Z,-1.14
2023-12-11T03:38:16.203Z,-1.16
2023-12-11T03:41:18.620Z,-1.11
2023-12-11T03:44:21.333Z,-1.08
2023-12-11T03:47:24.872Z,-1.05
2023-12-11T03:50:27.675Z,-1.06
2023-12-11T03:53:30.105Z,-1.03
2023-12-11T03:56:32.795Z,-1.06
2023-12-11T03:59:35.205Z,-1.07
2023-12-11T04:02:38.037Z,-1.08
2023-12-11T04:05:40.821Z,-1.05
2023-12-11T04:08:43.564Z,-1.05
2023-12-11T04:11:46.326Z,-1.08
2023-12-11T04:14:48.805Z,-0.98
2023-12-11T04:17:51.544Z,-0.98
2023-12-11T04:20:53.965Z,-0.98
2023-12-11T04:23:57.207Z,-0.98
2023-12-11T04:26:59.763Z,-0.98
2023-12-11T04:30:02.563Z,-1.01
2023-12-11T04:33:05.203Z,-0.94
2023-12-11T04:36:09.787Z,-0.94
2023-12-11T04:39:13.835Z,-0.88
2023-12-11T04:42:16.732Z,-0.90
2023-12-11T04:45:19.138Z,-0.89
2023-12-11T04:48:21.898Z,-0.91
2023-12-11T04:51:24.363Z,-0.93
2023-12-11T04:54:27.116Z,-0.96
2023-12-11T04:57:30.126Z,-1.02
2023-12-11T05:00:33.164Z,-1.02
2023-12-11T05:03:35.841Z,-1.06
2023-12-11T05:06:38.635Z,-1.01
2023-12-11T05:09:41.070Z,-1.02
2023-12-11T05:12:43.927Z,-1.02
2023-12-11T05:15:46.548Z,-1.01
2023-12-11T05:18:49.356Z,-1.04
2023-12-11T05:21:53.870Z,-1.04
2023-12-11T05:24:58.797Z,-1.00
2023-12-11T05:28:01.336Z,-0.96
2023-12-11T05:31:04.268Z,-0.98
2023-12-11T05:34:06.865Z,-0.95
2023-12-11T05:37:09.703Z,-0.93
2023-12-11T05:40:22.135Z,-0.91
2023-12-11T05:43:26.571Z,-0.90
2023-12-11T05:46:28.943Z,-0.87
2023-12-11T05:49:31.897Z,-0.89
2023-12-11T05:52:34.499Z,-0.84
2023-12-11T05:55:38.060Z,-0.78
2023-12-11T05:58:41.129Z,-0.76
2023-12-11T06:01:44.297Z,-0.73
2023-12-11T06:04:47.187Z,-0.70
2023-12-11T06:07:49.973Z,-0.68
2023-12-11T06:10:53.018Z,-0.69
2023-12-11T06:13:55.413Z,-0.68
2023-12-11T06:16:58.159Z,-0.67
2023-12-11T06:20:00.742Z,-0.65
2023-12-11T06:23:04.351Z,-0.64
2023-12-11T06:26:07.768Z,-0.68
2023-12-11T06:29:10.914Z,-0.62
2023-12-11T06:32:13.598Z,-0.56
2023-12-11T06:35:17.039Z,-0.58
2023-12-11T06:38:19.651Z,-0.57
2023-12-11T06:41:22.323Z,-0.56
2023-12-11T06:44:24.834Z,-0.53
2023-12-11T06:47:27.716Z,-0.53
2023-12-11T06:50:30.217Z,-0.53
2023-12-11T06:53:32.985Z,-0.50
2023-12-11T06:56:35.508Z,-0.50
2023-12-11T06:59:38.484Z,-0.49
2023-12-11T07:02:40.999Z,-0.49
2023-12-11T07:05:47.507Z,-0.46
2023-12-11T07:08:50.011Z,-0.49
2023-12-11T07:11:53.087Z,-0.47
2023-12-11T07:14:55.542Z,-0.44
2023-12-11T07:17:59.057Z,-0.41
2023-12-11T07:21:01.930Z,-0.36
2023-12-11T07:24:05.254Z,-0.34
2023-12-11T07:27:08.358Z,-0.36
2023-12-11T07:30:12.618Z,-0.38
2023-12-11T07:33:15.350Z,-0.32
2023-12-11T07:36:18.340Z,-0.28
2023-12-11T07:39:20.804Z,-0.21
2023-12-11T07:42:23.526Z,-0.15
2023-12-11T07:45:25.932Z,-0.14
2023-12-11T07:48:29.786Z,-0.16
2023-12-11T07:51:32.444Z,-0.19
2023-12-11T07:54:36.107Z,-0.03
2023-12-11T07:57:40.974Z,0.24
2023-12-11T08:00:44.155Z,0.49
2023-12-11T08:03:47.506Z,0.73
2023-12-11T08:06:51.456Z,0.98
2023-12-11T08:09:54.323Z,1.08
2023-12-11T08:12:56.796Z,1.19
2023-12-11T08:15:59.578Z,1.08
2023-12-11T08:19:02.302Z,1.12
2023-12-11T08:22:05.531Z,0.95
2023-12-11T08:25:08.347Z,0.91
2023-12-11T08:28:11.134Z,0.84
2023-12-11T08:31:13.665Z,0.90
2023-12-11T08:34:16.875Z,1.06
2023-12-11T08:37:19.521Z,0.93
2023-12-11T08:40:22.333Z,0.87
2023-12-11T08:43:24.947Z,0.81
2023-12-11T08:46:27.701Z,0.79
2023-12-11T08:49:30.256Z,1.02
2023-12-11T08:52:33.028Z,1.04
2023-12-11T08:55:35.989Z,1.18
2023-12-11T08:58:38.741Z,1.29
2023-12-11T09:01:41.385Z,1.80
2023-12-11T09:04:44.318Z,2.01
2023-12-11T09:07:46.924Z,2.27
2023-12-11T09:10:49.694Z,2.28
2023-12-11T09:13:52.136Z,2.01
2023-12-11T09:16:54.844Z,1.71
2023-12-11T09:19:57.381Z,1.59
2023-12-11T09:23:00.192Z,1.57
2023-12-11T09:26:02.646Z,1.52
2023-12-11T09:29:05.381Z,1.49
2023-12-11T09:32:07.859Z,1.50
2023-12-11T09:35:11.518Z,1.46
2023-12-11T09:38:14.143Z,1.41
2023-12-11T09:41:16.883Z,1.50
2023-12-11T09:44:20.519Z,1.77
2023-12-11T09:47:33.294Z,1.83
2023-12-11T09:50:40.963Z,1.96
2023-12-11T09:53:44.228Z,2.00
2023-12-11T09:56:46.942Z,2.21
2023-12-11T09:59:51.812Z,2.43
2023-12-11T10:02:55.327Z,2.60
2023-12-11T10:06:01.007Z,2.52
2023-12-11T10:09:05.326Z,2.74
2023-12-11T10:12:08.299Z,2.83
2023-12-11T10:15:10.740Z,2.78
2023-12-11T10:18:13.955Z,2.59
2023-12-11T10:21:16.653Z,2.54
2023-12-11T10:24:19.548Z,2.43
2023-12-11T10:27:26.367Z,2.43
2023-12-11T10:30:29.087Z,2.42
2023-12-11T10:33:32.593Z,2.48
2023-12-11T10:36:35.504Z,2.76
2023-12-11T10:39:38.323Z,2.90
2023-12-11T10:42:41.749Z,2.98
2023-12-11T10:45:48.148Z,2.98
2023-12-11T10:48:53.257Z,2.69
2023-12-11T10:51:56.715Z,2.83
2023-12-11T10:55:00.634Z,2.65
2023-12-11T10:58:03.501Z,2.67
2023-12-11T11:01:07.216Z,2.34
2023-12-11T11:04:10.373Z,2.48
2023-12-11T11:07:24.680Z,2.32
2023-12-11T11:10:33.610Z,2.30
2023-12-11T11:13:50.855Z,2.16
2023-12-11T11:16:53.600Z,2.35
2023-12-11T11:20:11.790Z,2.53
2023-12-11T11:23:17.573Z,2.60
2023-12-11T11:26:46.598Z,2.66
2023-12-11T11:29:49.075Z,2.80
2023-12-11T11:32:54.589Z,2.84
2023-12-11T11:35:58.069Z,2.73
2023-12-11T11:39:02.798Z,2.53
2023-12-11T11:42:08.019Z,2.45
2023-12-11T11:45:11.163Z,2.44
2023-12-11T11:48:13.756Z,2.54
2023-12-11T11:51:18.346Z,2.68
2023-12-11T11:54:24.837Z,2.66
2023-12-11T11:57:29.451Z,2.61
2023-12-11T12:00:35.037Z,2.72
2023-12-11T12:03:44.947Z,2.77
2023-12-11T12:06:47.493Z,2.91
2023-12-11T12:09:53.841Z,2.98
2023-12-11T12:13:00.619Z,2.96
2023-12-11T12:16:04.000Z,2.65
2023-12-11T12:19:06.986Z,2.46
2023-12-11T12:22:14.251Z,2.19
2023-12-11T12:25:17.478Z,1.95
2023-12-11T12:28:20.778Z,1.90
2023-12-11T12:31:23.452Z,1.92
2023-12-11T12:34:27.258Z,1.87
2023-12-11T12:37:30.590Z,1.81
2023-12-11T12:40:37.612Z,1.85
2023-12-11T12:43:40.070Z,1.87
2023-12-11T12:46:43.666Z,1.89
2023-12-11T12:49:47.088Z,1.86
2023-12-11T12:52:50.004Z,1.65
2023-12-11T12:55:52.607Z,1.93
2023-12-11T12:58:57.231Z,2.02
2023-12-11T13:01:59.880Z,2.05
2023-12-11T13:05:06.848Z,2.10
2023-12-11T13:08:09.430Z,2.09
2023-12-11T13:11:13.223Z,2.06
2023-12-11T13:14:15.688Z,2.01
2023-12-11T13:17:18.420Z,1.99
2023-12-11T13:20:21.372Z,2.00
2023-12-11T13:23:25.201Z,2.00
2023-12-11T13:26:27.794Z,2.04
2023-12-11T13:29:30.505Z,2.02
2023-12-11T13:32:32.984Z,1.99
2023-12-11T13:35:35.881Z,2.02
2023-12-11T13:38:38.544Z,1.94
2023-12-11T13:41:41.259Z,1.87
2023-12-11T13:44:43.863Z,1.79
2023-12-11T13:47:46.850Z,1.73
2023-12-11T13:50:49.365Z,1.67
2023-12-11T13:53:52.027Z,1.65
2023-12-11T13:56:54.472Z,1.62
2023-12-11T13:59:57.198Z,1.63
2023-12-11T14:03:03.828Z,1.57
2023-12-11T14:06:07.742Z,1.59
2023-12-11T14:09:10.997Z,1.57
2023-12-11T14:12:13.915Z,1.39
2023-12-11T14:15:16.528Z,1.54
2023-12-11T14:18:19.684Z,1.58
2023-12-11T14:21:22.297Z,1.48
2023-12-11T14:24:26.999Z,1.53
2023-12-11T14:27:30.030Z,1.44
2023-12-11T14:30:34.290Z,1.50
2023-12-11T14:33:36.901Z,1.44
2023-12-11T14:36:39.623Z,1.40
2023-12-11T14:39:43.147Z,1.35
2023-12-11T14:42:46.040Z,1.38
2023-12-11T14:45:48.515Z,1.33
2023-12-11T14:48:51.719Z,1.33
2023-12-11T14:51:54.292Z,1.31
2023-12-11T14:54:57.428Z,1.30
2023-12-11T14:57:59.873Z,1.29
2023-12-11T15:01:02.997Z,1.33
2023-12-11T15:04:06.001Z,1.32
2023-12-11T15:07:08.758Z,1.39
2023-12-11T15:10:11.270Z,1.35
2023-12-11T15:13:13.978Z,1.32
2023-12-11T15:16:16.719Z,1.34
2023-12-11T15:19:19.546Z,1.37
2023-12-11T15:22:22.094Z,1.31
2023-12-11T15:25:27.127Z,1.28
2023-12-11T15:28:31.196Z,1.24
2023-12-11T15:31:34.562Z,1.23
2023-12-11T15:34:38.298Z,1.23
2023-12-11T15:37:41.026Z,1.23
2023-12-11T15:40:43.571Z,1.24
2023-12-11T15:43:49.708Z,1.20
2023-12-11T15:46:52.146Z,1.22
2023-12-11T15:49:54.997Z,1.17
2023-12-11T15:52:58.839Z,1.18
2023-12-11T15:56:01.560Z,1.08
2023-12-11T15:59:04.017Z,1.15
2023-12-11T16:02:06.933Z,1.10
2023-12-11T16:05:09.880Z,1.21
2023-12-11T16:08:12.686Z,1.08
2023-12-11T16:11:15.949Z,1.03
2023-12-11T16:14:18.361Z,1.06
2023-12-11T16:17:21.113Z,1.06
2023-12-11T16:20:23.560Z,1.14
2023-12-11T16:23:26.697Z,1.04
2023-12-11T16:26:29.198Z,1.08
2023-12-11T16:29:35.173Z,1.04
2023-12-11T16:32:37.826Z,1.08
2023-12-11T16:35:40.669Z,1.07
2023-12-11T16:38:43.704Z,1.11
2023-12-11T16:41:46.589Z,1.02
2023-12-11T16:44:49.147Z,1.05
2023-12-11T16:47:55.057Z,1.06
2023-12-11T16:50:57.636Z,1.05
2023-12-11T16:54:00.337Z,1.08
2023-12-11T16:57:02.781Z,1.05
2023-12-11T17:00:07.112Z,1.02
2023-12-11T17:03:09.552Z,1.07
2023-12-11T17:06:19.454Z,1.06
2023-12-11T17:09:21.920Z,1.01
2023-12-11T17:12:24.754Z,0.99
2023-12-11T17:15:27.136Z,1.03
2023-12-11T17:18:30.171Z,0.93
2023-12-11T17:21:34.274Z,0.87
2023-12-11T17:24:39.298Z,0.91
2023-12-11T17:27:41.828Z,0.89
2023-12-11T17:30:45.006Z,0.85
2023-12-11T17:33:47.639Z,0.87
2023-12-11T17:36:50.517Z,0.90
2023-12-11T17:39:54.569Z,0.90
2023-12-11T17:42:57.535Z,0.93
2023-12-11T17:46:00.311Z,0.86
2023-12-11T17:49:04.817Z,0.91
2023-12-11T17:52:07.392Z,0.98
2023-12-11T17:55:10.275Z,0.95
2023-12-11T17:58:12.838Z,0.94
2023-12-11T18:01:15.658Z,0.97
2023-12-11T18:04:18.490Z,0.94
2023-12-11T18:07:23.266Z,0.89
2023-12-11T18:10:26.123Z,0.81
2023-12-11T18:13:28.684Z,0.74
2023-12-11T18:16:33.505Z,0.71
2023-12-11T18:19:36.037Z,0.72
2023-12-11T18:22:38.886Z,0.60
2023-12-11T18:25:41.402Z,0.58
2023-12-11T18:28:44.298Z,0.57
2023-12-11T18:31:46.673Z,0.53
2023-12-11T18:34:54.598Z,0.48
2023-12-11T18:37:57.713Z,0.43
2023-12-11T18:41:00.665Z,0.41
2023-12-11T18:44:03.075Z,0.33
2023-12-11T18:47:06.000Z,0.27
2023-12-11T18:50:09.487Z,0.36
2023-12-11T18:53:12.541Z,0.40
2023-12-11T18:56:23.228Z,0.31
2023-12-11T18:59:26.269Z,0.17
2023-12-11T19:02:28.749Z,0.21
2023-12-11T19:05:31.575Z,0.26
2023-12-11T19:08:34.435Z,0.37
2023-12-11T19:11:37.125Z,0.42
2023-12-11T19:14:39.564Z,0.43
2023-12-11T19:17:43.195Z,0.48
2023-12-11T19:20:46.032Z,0.53
2023-12-11T19:23:50.911Z,0.52
2023-12-11T19:26:53.407Z,0.54
2023-12-11T19:29:56.237Z,0.48
2023-12-11T19:32:58.673Z,0.47
2023-12-11T19:36:04.118Z,0.41
2023-12-11T19:39:06.789Z,0.38
2023-12-11T19:42:09.756Z,0.29
2023-12-11T19:45:13.728Z,0.15
2023-12-11T19:48:18.841Z,0.02
2023-12-11T19:51:21.659Z,-0.09
2023-12-11T19:54:24.321Z,-0.17
2023-12-11T19:57:26.789Z,-0.24
2023-12-11T20:00:29.808Z,-0.36
2023-12-11T20:03:32.824Z,-0.42
2023-12-11T20:06:35.423Z,-0.50
2023-12-11T20:09:38.152Z,-0.46
2023-12-11T20:12:40.553Z,-0.46
2023-12-11T20:15:43.265Z,-0.50
2023-12-11T20:18:46.066Z,-0.51
2023-12-11T20:21:49.312Z,-0.64
2023-12-11T20:24:51.752Z,-0.69
2023-12-11T20:27:54.455Z,-0.74
2023-12-11T20:30:57.782Z,-0.81
2023-12-11T20:34:00.620Z,-0.87
2023-12-11T20:37:03.376Z,-0.91
2023-12-11T20:40:07.104Z,-0.91
2023-12-11T20:43:09.852Z,-0.94
2023-12-11T20:46:12.648Z,-1.00
2023-12-11T20:49:16.759Z,-0.79
2023-12-11T20:52:19.684Z,-0.69
2023-12-11T20:55:22.410Z,-0.74
2023-12-11T20:58:25.138Z,-0.61
2023-12-11T21:01:28.734Z,-0.55
2023-12-11T21:04:31.592Z,-0.45
2023-12-11T21:07:34.622Z,-0.49
2023-12-11T21:10:37.550Z,-0.43
2023-12-11T21:13:40.016Z,-0.41
2023-12-11T21:16:42.739Z,-0.35
2023-12-11T21:19:45.872Z,-0.30
2023-12-11T21:22:48.800Z,-0.24
2023-12-11T21:25:51.365Z,-0.25
2023-12-11T21:28:54.621Z,-0.19
2023-12-11T21:31:57.173Z,-0.28
2023-12-11T21:35:00.366Z,-0.32
2023-12-11T21:38:02.769Z,-0.37
2023-12-11T21:41:08.307Z,-0.40
2023-12-11T21:44:11.560Z,-0.41
2023-12-11T21:47:14.738Z,-0.38
2023-12-11T21:50:17.300Z,-0.33
2023-12-11T21:53:20.199Z,-0.27
2023-12-11T21:56:25.249Z,-0.29
2023-12-11T21:59:35.366Z,-0.29
2023-12-11T22:02:42.500Z,-0.31
2023-12-11T22:05:46.273Z,-0.29
2023-12-11T22:08:49.207Z,-0.32
2023-12-11T22:11:51.919Z,-0.37
2023-12-11T22:14:54.315Z,-0.48
2023-12-11T22:17:57.035Z,-0.65
2023-12-11T22:20:59.490Z,-0.70
2023-12-11T22:24:02.173Z,-0.76
2023-12-11T22:27:04.829Z,-0.81
2023-12-11T22:30:08.364Z,-0.87
2023-12-11T22:33:10.794Z,-0.92
2023-12-11T22:36:21.313Z,-0.82
2023-12-11T22:39:23.665Z,-1.10
2023-12-11T22:42:26.326Z,-1.17
2023-12-11T22:45:28.738Z,-1.06
2023-12-11T22:48:31.467Z,-1.20
2023-12-11T22:51:33.909Z,-1.20
2023-12-11T22:54:36.579Z,-1.18
2023-12-11T22:57:40.309Z,-1.22
2023-12-11T23:00:43.648Z,-1.21
2023-12-11T23:03:46.170Z,-1.31
2023-12-11T23:06:48.832Z,-1.28
2023-12-11T23:09:51.381Z,-1.43
2023-12-11T23:12:54.093Z,-1.51
2023-12-11T23:15:56.556Z,-1.54
2023-12-11T23:19:01.963Z,-1.65
2023-12-11T23:22:04.628Z,-1.43
2023-12-11T23:25:07.616Z,-1.44
2023-12-11T23:28:10.079Z,-1.49
2023-12-11T23:31:12.760Z,-1.68
2023-12-11T23:34:15.841Z,-1.54
2023-12-11T23:37:18.697Z,-1.48
2023-12-11T23:40:21.544Z,-1.40
2023-12-11T23:43:24.557Z,-1.30
2023-12-11T23:46:30.203Z,-1.16
2023-12-11T23:49:33.167Z,-1.09
2023-12-11T23:52:35.687Z,-1.04
2023-12-11T23:55:39.183Z,-1.02
2023-12-11T23:58:41.591Z,-1.02
